Time;durP1;ratioP1;P1;durP2;ratioP2;P2;SDS_P1;SDS_P2;PMS_P1;PMS_P2;Temp;Humidity;BMP_temperature;BMP_pressure;BME280_temperature;BME280_humidity;BME280_pressure;Samples;Min_cycle;Max_cycle;Signal;HPM_P1;HPM_P2
2020/12/19 00:02:06;;;;;;;6.40;5.80;;;;;;;9.30;73.86;96706.59;5053311;28;20195;-61
2020/12/19 00:04:32;;;;;;;6.10;5.10;;;;;;;9.32;73.74;96699.31;5053521;28;20258;-58
2020/12/19 00:06:57;;;;;;;5.50;5.03;;;;;;;9.32;73.17;96699.31;5052818;28;20426;-60
2020/12/19 00:09:23;;;;;;;6.30;5.33;;;;;;;9.29;73.55;96694.47;5053430;28;20433;-58
2020/12/19 00:11:48;;;;;;;5.57;5.07;;;;;;;9.31;73.46;96705.56;5053191;28;20214;-57
2020/12/19 00:14:13;;;;;;;5.80;5.20;;;;;;;9.28;73.38;96698.13;5050702;28;20187;-58
2020/12/19 00:16:39;;;;;;;5.70;5.20;;;;;;;9.26;73.22;96694.09;5052484;28;20171;-61
2020/12/19 00:19:05;;;;;;;6.03;5.43;;;;;;;9.28;72.77;96687.63;5052710;28;20194;-60
2020/12/19 00:21:34;;;;;;;6.13;5.63;;;;;;;9.00;73.36;96689.78;5053414;28;20169;-58
2020/12/19 00:24:04;;;;;;;6.90;6.17;;;;;;;9.02;74.29;96686.94;5052269;28;20926;-60
2020/12/19 00:26:40;;;;;;;5.23;4.83;;;;;;;8.84;74.55;96678.94;5052232;28;20450;-58
2020/12/19 00:29:07;;;;;;;5.80;4.57;;;;;;;8.78;75.53;96688.44;5053157;28;20516;-60
2020/12/19 00:31:33;;;;;;;4.63;4.23;;;;;;;8.75;75.56;96688.03;5052803;28;20425;-60
2020/12/19 00:33:59;;;;;;;4.83;4.33;;;;;;;8.84;75.68;96682.34;5053160;28;20441;-57
2020/12/19 00:36:24;;;;;;;4.73;4.17;;;;;;;8.88;75.40;96675.69;5052138;28;20431;-58
2020/12/19 00:38:51;;;;;;;6.00;4.57;;;;;;;9.00;74.38;96675.88;5052502;28;20237;-59
2020/12/19 00:41:21;;;;;;;5.47;4.60;;;;;;;8.81;75.04;96668.88;5052710;28;20276;-60
2020/12/19 00:43:47;;;;;;;4.40;4.00;;;;;;;8.90;74.27;96660.56;5052702;28;20998;-60
2020/12/19 00:46:14;;;;;;;4.20;3.90;;;;;;;9.04;74.25;96656.09;5052794;28;20497;-59
2020/12/19 00:48:40;;;;;;;4.77;4.27;;;;;;;9.20;73.74;96658.25;5052366;28;20433;-58
2020/12/19 00:51:13;;;;;;;5.20;4.33;;;;;;;9.24;73.10;96651.53;5052855;28;20421;-58
2020/12/19 00:53:43;;;;;;;4.40;3.20;;;;;;;9.27;72.89;96654.56;5052506;28;20417;-58
2020/12/19 00:56:27;;;;;;;3.53;3.30;;;;;;;9.19;72.81;96660.03;5052569;28;20488;-57
2020/12/19 00:58:55;;;;;;;5.17;3.43;;;;;;;8.89;73.53;96653.75;5051598;28;20504;-60
2020/12/19 01:01:22;;;;;;;4.50;4.10;;;;;;;8.96;73.59;96661.56;5052332;28;20426;-59
2020/12/19 01:03:49;;;;;;;4.17;3.87;;;;;;;9.22;73.08;96662.25;5052618;28;20776;-59
2020/12/19 01:06:18;;;;;;;4.30;3.90;;;;;;;9.44;72.23;96657.47;5052709;28;20845;-57
2020/12/19 01:08:46;;;;;;;4.33;3.93;;;;;;;9.59;71.57;96658.00;5051406;28;20420;-60
2020/12/19 01:11:19;;;;;;;4.87;4.37;;;;;;;9.65;71.42;96656.34;5053032;28;20423;-60
2020/12/19 01:13:45;;;;;;;4.67;4.17;;;;;;;9.64;71.10;96655.53;5052979;28;20402;-59
2020/12/19 01:16:24;;;;;;;4.53;4.13;;;;;;;9.55;71.70;96656.81;5052486;28;20416;-58
2020/12/19 01:18:51;;;;;;;4.87;4.37;;;;;;;9.53;71.68;96658.06;5052884;28;20394;-60
2020/12/19 01:21:21;;;;;;;4.97;3.97;;;;;;;9.58;71.34;96648.53;5052108;28;20425;-58
2020/12/19 01:23:48;;;;;;;4.50;4.10;;;;;;;9.56;71.29;96649.75;5052470;28;20508;-60
2020/12/19 01:26:14;;;;;;;4.40;3.80;;;;;;;9.38;71.93;96641.78;5052108;28;20470;-57
2020/12/19 01:28:40;;;;;;;4.90;4.50;;;;;;;9.52;71.19;96644.13;5052321;28;20460;-59
2020/12/19 01:31:07;;;;;;;3.97;3.67;;;;;;;9.51;71.02;96646.97;5052814;28;20434;-58
2020/12/19 01:33:34;;;;;;;4.37;4.00;;;;;;;9.37;71.83;96648.84;5052531;28;20175;-59
2020/12/19 01:36:00;;;;;;;4.23;3.80;;;;;;;9.36;71.51;96652.50;5051981;28;20930;-59
2020/12/19 01:38:25;;;;;;;3.60;3.30;;;;;;;9.29;71.74;96641.25;5051913;28;20430;-57
2020/12/19 01:40:52;;;;;;;6.40;4.40;;;;;;;9.27;71.96;96643.28;5052729;28;20499;-58
2020/12/19 01:43:18;;;;;;;4.10;3.70;;;;;;;9.38;71.93;96653.09;5055613;28;20183;-58
2020/12/19 01:45:43;;;;;;;4.27;3.50;;;;;;;9.33;71.83;96650.28;5055746;28;20454;-60
2020/12/19 01:48:20;;;;;;;4.50;4.03;;;;;;;9.23;72.13;96642.88;5054905;28;20179;-59
2020/12/19 01:50:47;;;;;;;3.80;3.30;;;;;;;9.16;72.17;96646.56;5051185;28;20199;-59
2020/12/19 01:53:13;;;;;;;4.13;3.83;;;;;;;9.05;72.39;96641.97;5055355;28;20423;-57
2020/12/19 01:55:38;;;;;;;4.73;3.70;;;;;;;8.99;72.71;96640.16;5054587;28;20470;-58
2020/12/19 01:58:04;;;;;;;4.57;3.80;;;;;;;8.72;73.41;96630.81;5055423;28;20176;-58
2020/12/19 02:00:29;;;;;;;4.97;4.27;;;;;;;8.83;73.48;96638.03;5056540;28;20195;-57
2020/12/19 02:02:55;;;;;;;4.40;3.70;;;;;;;8.70;74.10;96632.81;5055264;28;20185;-58
2020/12/19 02:05:20;;;;;;;3.73;3.43;;;;;;;8.74;73.90;96634.03;5055782;28;20744;-57
2020/12/19 02:07:45;;;;;;;4.17;3.70;;;;;;;8.86;73.21;96638.41;5055101;28;20189;-57
2020/12/19 02:10:11;;;;;;;4.10;3.63;;;;;;;8.76;73.19;96632.00;5055683;28;20194;-57
2020/12/19 02:12:36;;;;;;;3.70;3.40;;;;;;;8.94;73.29;96629.50;5055475;28;20184;-59
2020/12/19 02:15:01;;;;;;;6.90;3.57;;;;;;;9.12;72.18;96627.00;5055653;28;20160;-58
2020/12/19 02:17:27;;;;;;;3.87;3.57;;;;;;;8.86;73.55;96625.31;5054471;28;20183;-57
2020/12/19 02:19:52;;;;;;;3.90;3.47;;;;;;;8.66;73.68;96626.41;5055548;28;20197;-59
2020/12/19 02:22:17;;;;;;;3.70;3.40;;;;;;;8.72;74.13;96625.56;5055468;28;20172;-58
2020/12/19 02:24:43;;;;;;;4.37;3.97;;;;;;;8.55;74.76;96619.19;5054327;28;20627;-57
2020/12/19 02:27:08;;;;;;;4.03;3.63;;;;;;;8.86;73.64;96612.22;5054959;28;20172;-57
2020/12/19 02:29:34;;;;;;;5.90;3.73;;;;;;;8.83;73.24;96623.13;5055281;28;20202;-59
2020/12/19 02:32:00;;;;;;;3.63;3.33;;;;;;;8.89;73.35;96613.63;5054805;28;20195;-57
2020/12/19 02:34:26;;;;;;;5.03;4.53;;;;;;;9.04;72.61;96604.47;5055465;28;20251;-58
2020/12/19 02:36:52;;;;;;;4.10;3.80;;;;;;;9.21;71.91;96607.41;5054723;28;20416;-58
2020/12/19 02:39:18;;;;;;;4.20;3.80;;;;;;;9.28;71.08;96610.78;5054633;28;20438;-60
2020/12/19 02:41:46;;;;;;;4.23;3.83;;;;;;;9.24;71.46;96604.34;5055144;28;20530;-59
2020/12/19 02:44:14;;;;;;;4.63;3.60;;;;;;;9.25;71.78;96606.78;5055203;28;20259;-57
2020/12/19 02:46:40;;;;;;;3.90;3.60;;;;;;;9.19;71.86;96607.63;5054065;28;21311;-58
2020/12/19 02:49:07;;;;;;;3.43;3.23;;;;;;;9.26;71.94;96600.50;5054674;28;20437;-58
2020/12/19 02:51:32;;;;;;;7.17;4.60;;;;;;;9.26;71.50;96595.28;5054283;28;20259;-57
2020/12/19 02:53:58;;;;;;;3.87;3.57;;;;;;;9.47;70.68;96604.63;5054216;28;20463;-60
2020/12/19 02:56:24;;;;;;;4.33;4.03;;;;;;;9.38;70.55;96590.94;5054222;28;20650;-58
2020/12/19 02:58:49;;;;;;;3.07;2.77;;;;;;;9.31;70.73;96595.44;5054689;28;20702;-57
2020/12/19 03:01:15;;;;;;;4.10;3.70;;;;;;;9.27;71.56;96598.69;5055008;28;20165;-59
2020/12/19 03:03:40;;;;;;;4.03;3.63;;;;;;;9.40;70.95;96601.25;5054430;28;20596;-57
2020/12/19 03:06:05;;;;;;;3.90;3.60;;;;;;;9.41;70.68;96597.59;5054846;28;20247;-59
2020/12/19 03:08:31;;;;;;;5.47;3.07;;;;;;;9.31;70.72;96602.50;5054335;28;20164;-60
2020/12/19 03:10:56;;;;;;;4.53;3.67;;;;;;;9.25;71.34;96603.34;5054019;28;20692;-57
2020/12/19 03:13:22;;;;;;;3.93;3.53;;;;;;;9.35;71.05;96598.44;5054698;28;20171;-58
2020/12/19 03:15:47;;;;;;;4.20;3.80;;;;;;;9.34;71.27;96602.09;5054777;28;20537;-60
2020/12/19 03:18:13;;;;;;;4.17;3.77;;;;;;;9.29;70.71;96604.53;5054352;28;20225;-58
2020/12/19 03:20:38;;;;;;;3.77;3.37;;;;;;;9.26;70.99;96597.06;5052989;28;20200;-60
2020/12/19 03:23:03;;;;;;;3.93;3.63;;;;;;;9.36;70.81;96602.69;5054362;28;20631;-58
2020/12/19 03:25:29;;;;;;;3.57;3.20;;;;;;;9.42;70.81;96595.78;5053578;28;20256;-58
2020/12/19 03:27:54;;;;;;;4.27;3.87;;;;;;;9.33;70.91;96593.41;5054056;28;20707;-60
2020/12/19 03:30:24;;;;;;;3.83;3.43;;;;;;;9.27;71.08;96599.50;5054453;28;20653;-60
2020/12/19 03:32:51;;;;;;;3.57;3.27;;;;;;;9.30;71.28;96588.59;5054305;28;20502;-60
2020/12/19 03:35:16;;;;;;;3.83;3.47;;;;;;;9.12;71.49;96588.50;5054181;28;20988;-60
2020/12/19 03:37:42;;;;;;;4.10;3.60;;;;;;;9.16;71.52;96588.88;5052461;28;20516;-60
2020/12/19 03:40:07;;;;;;;3.83;3.50;;;;;;;8.87;72.40;96594.69;5052992;28;20214;-60
2020/12/19 03:42:32;;;;;;;3.37;3.07;;;;;;;8.80;72.94;96583.44;5053675;28;20251;-58
2020/12/19 03:44:58;;;;;;;3.57;3.27;;;;;;;8.99;72.17;96583.34;5053334;28;20191;-58
2020/12/19 03:47:23;;;;;;;3.80;3.50;;;;;;;8.98;72.40;96583.53;5053602;28;20178;-60
2020/12/19 03:49:49;;;;;;;3.70;3.40;;;;;;;8.97;72.31;96574.06;5053850;28;20257;-60
2020/12/19 03:52:14;;;;;;;3.57;3.37;;;;;;;9.12;71.66;96578.03;5053401;28;20195;-58
2020/12/19 03:54:40;;;;;;;3.87;3.23;;;;;;;9.21;70.95;96583.81;5053060;28;20205;-59
2020/12/19 03:57:05;;;;;;;3.60;3.20;;;;;;;9.08;71.20;96571.59;5053400;28;20167;-58
2020/12/19 03:59:30;;;;;;;4.53;3.40;;;;;;;9.14;71.22;96572.56;5053539;28;20688;-58
2020/12/19 04:01:56;;;;;;;3.80;3.27;;;;;;;8.88;72.18;96570.88;5053762;28;20188;-58
2020/12/19 04:04:21;;;;;;;5.10;3.43;;;;;;;9.03;72.18;96566.19;5053018;28;20172;-58
2020/12/19 04:06:47;;;;;;;4.83;3.40;;;;;;;9.02;71.60;96571.63;5052744;28;20255;-59
2020/12/19 04:09:12;;;;;;;3.43;3.13;;;;;;;8.96;72.25;96564.59;5053441;28;20193;-60
2020/12/19 04:11:37;;;;;;;4.70;3.47;;;;;;;9.04;71.87;96569.63;5052932;28;20208;-59
2020/12/19 04:14:03;;;;;;;5.60;3.37;;;;;;;9.06;71.91;96567.56;5053428;28;20653;-58
2020/12/19 04:16:28;;;;;;;3.47;3.27;;;;;;;8.91;71.45;96561.81;5053323;28;20494;-59
2020/12/19 04:18:53;;;;;;;3.87;3.57;;;;;;;8.82;72.15;96561.25;5053482;28;20175;-60
2020/12/19 04:21:19;;;;;;;3.03;2.83;;;;;;;8.78;72.81;96557.44;5052955;28;20183;-60
2020/12/19 04:23:44;;;;;;;3.33;3.13;;;;;;;8.81;72.78;96556.22;5053323;28;20247;-58
2020/12/19 04:26:09;;;;;;;3.40;3.10;;;;;;;8.94;72.04;96550.91;5053159;28;20202;-58
2020/12/19 04:28:35;;;;;;;3.40;3.13;;;;;;;8.77;72.96;96560.28;5052838;28;20204;-58
2020/12/19 04:31:00;;;;;;;4.33;3.00;;;;;;;8.92;72.28;96545.06;5053555;28;20612;-61
2020/12/19 04:33:26;;;;;;;3.37;3.10;;;;;;;8.98;71.78;96545.06;5053306;28;20182;-58
2020/12/19 04:35:51;;;;;;;3.90;3.50;;;;;;;9.17;71.76;96551.97;5052560;28;20195;-60
2020/12/19 04:38:17;;;;;;;3.40;3.00;;;;;;;9.38;70.23;96550.03;5052811;28;20206;-59
2020/12/19 04:40:43;;;;;;;4.10;2.90;;;;;;;9.39;70.17;96544.56;5053018;28;20706;-59
2020/12/19 04:43:18;;;;;;;2.90;2.70;;;;;;;9.32;70.26;96549.88;5052710;28;20484;-58
2020/12/19 04:45:46;;;;;;;3.07;2.77;;;;;;;9.31;70.68;96552.69;5052864;28;20196;-58
2020/12/19 04:48:19;;;;;;;3.27;3.00;;;;;;;9.20;70.60;96553.38;5051999;28;20432;-60
2020/12/19 04:50:46;;;;;;;2.80;2.60;;;;;;;9.19;71.04;96549.13;5052980;28;20531;-58
2020/12/19 04:53:19;;;;;;;3.13;2.83;;;;;;;9.28;70.68;96546.06;5053196;28;20424;-60
2020/12/19 04:55:45;;;;;;;3.10;2.90;;;;;;;9.51;70.12;96553.31;5052818;28;20912;-58
2020/12/19 04:58:13;;;;;;;2.67;2.53;;;;;;;9.66;69.36;96543.31;5051233;28;20508;-60
2020/12/19 05:00:42;;;;;;;2.80;2.60;;;;;;;9.76;69.29;96543.66;5053016;28;20411;-58
2020/12/19 05:03:08;;;;;;;3.47;2.50;;;;;;;9.78;68.77;96546.88;5052383;28;20421;-60
2020/12/19 05:05:36;;;;;;;3.80;3.47;;;;;;;9.83;68.68;96541.78;5052990;28;20960;-60
2020/12/19 05:08:01;;;;;;;3.03;2.73;;;;;;;9.88;68.24;96547.16;5051131;28;20776;-60
2020/12/19 05:10:26;;;;;;;3.37;2.87;;;;;;;9.78;68.43;96546.88;5052826;28;20422;-61
2020/12/19 05:12:55;;;;;;;3.00;2.70;;;;;;;9.72;68.36;96549.53;5052281;28;20203;-61
2020/12/19 05:15:22;;;;;;;3.43;3.17;;;;;;;9.69;68.33;96548.16;5052379;28;20212;-60
2020/12/19 05:17:52;;;;;;;4.00;3.43;;;;;;;9.63;68.55;96556.06;5056030;28;20483;-59
2020/12/19 05:20:20;;;;;;;3.13;2.90;;;;;;;9.60;68.94;96543.41;5056494;28;20444;-58
2020/12/19 05:22:49;;;;;;;2.63;2.43;;;;;;;9.55;68.92;96546.66;5056825;28;20465;-61
2020/12/19 05:25:20;;;;;;;3.30;3.10;;;;;;;9.42;69.29;96546.75;5056686;28;20536;-61
2020/12/19 05:27:47;;;;;;;3.40;3.10;;;;;;;9.48;69.12;96542.47;5056188;28;20482;-59
2020/12/19 05:30:17;;;;;;;2.80;2.60;;;;;;;9.29;69.39;96541.63;5055777;28;20450;-58
2020/12/19 05:32:48;;;;;;;3.10;2.87;;;;;;;9.17;69.54;96540.69;5056564;28;20429;-61
2020/12/19 05:35:19;;;;;;;3.43;3.13;;;;;;;8.93;70.54;96544.06;5056442;28;20402;-61
2020/12/19 05:38:01;;;;;;;3.40;2.93;;;;;;;9.03;70.17;96541.78;5056011;28;20430;-60
2020/12/19 05:40:28;;;;;;;2.67;2.47;;;;;;;9.03;70.20;96549.66;5055809;28;20450;-61
2020/12/19 05:42:54;;;;;;;3.03;2.83;;;;;;;9.14;70.03;96541.91;5055613;28;20429;-58
2020/12/19 05:45:22;;;;;;;3.87;3.07;;;;;;;9.14;69.78;96543.72;5056189;28;20793;-59
2020/12/19 05:47:48;;;;;;;3.60;2.90;;;;;;;9.29;69.68;96546.88;5055807;28;20409;-58
2020/12/19 05:50:14;;;;;;;3.83;3.13;;;;;;;9.25;69.31;96549.09;5056047;28;20422;-59
2020/12/19 05:52:40;;;;;;;4.50;2.80;;;;;;;9.09;69.62;96539.13;5056180;28;20405;-59
2020/12/19 05:55:10;;;;;;;3.37;3.10;;;;;;;9.38;69.21;96546.38;5055867;28;20413;-58
2020/12/19 05:57:37;;;;;;;4.10;3.23;;;;;;;9.47;68.18;96536.44;5055424;28;20258;-60
2020/12/19 06:00:08;;;;;;;3.50;3.20;;;;;;;9.62;68.18;96544.75;5056149;28;20425;-60
2020/12/19 06:02:37;;;;;;;4.03;3.20;;;;;;;9.67;68.02;96550.19;5055972;28;20443;-58
2020/12/19 06:05:14;;;;;;;3.20;2.83;;;;;;;9.71;67.90;96547.94;5055809;28;20453;-61
2020/12/19 06:07:45;;;;;;;3.07;2.87;;;;;;;9.64;67.86;96550.59;5055092;28;20425;-61
2020/12/19 06:10:12;;;;;;;3.33;2.90;;;;;;;9.63;67.68;96545.56;5055161;28;20442;-60
2020/12/19 06:13:03;;;;;;;4.47;3.53;;;;;;;9.52;68.21;96549.69;5054643;28;20453;-58
2020/12/19 06:15:47;;;;;;;4.60;3.47;;;;;;;9.48;68.08;96553.75;5055701;28;20414;-61
2020/12/19 06:18:21;;;;;;;3.20;2.90;;;;;;;9.34;68.58;96550.44;5055360;28;20490;-58
2020/12/19 06:20:46;;;;;;;4.07;3.30;;;;;;;9.28;68.66;96546.06;5055785;28;20820;-60
2020/12/19 06:23:16;;;;;;;3.80;3.07;;;;;;;9.21;69.02;96552.34;5055669;28;20406;-59
2020/12/19 06:25:44;;;;;;;4.50;3.90;;;;;;;9.12;69.40;96553.63;5054824;28;20200;-60
2020/12/19 06:28:10;;;;;;;3.83;3.40;;;;;;;9.05;69.56;96556.28;5053919;28;20881;-59
2020/12/19 06:30:36;;;;;;;4.30;3.90;;;;;;;8.96;69.47;96551.50;5055533;28;20482;-58
2020/12/19 06:33:19;;;;;;;5.47;4.17;;;;;;;8.85;69.61;96549.53;5055490;28;20500;-60
2020/12/19 06:35:50;;;;;;;4.87;4.47;;;;;;;8.79;70.13;96545.94;5054923;28;20422;-58
2020/12/19 06:38:39;;;;;;;4.67;3.97;;;;;;;8.76;69.90;96551.63;5054650;28;20843;-58
2020/12/19 06:41:05;;;;;;;4.17;3.77;;;;;;;8.71;70.21;96545.41;5055252;28;20441;-62
2020/12/19 06:43:30;;;;;;;4.87;4.20;;;;;;;8.69;70.47;96557.91;5054696;28;20426;-60
2020/12/19 06:45:55;;;;;;;4.03;3.70;;;;;;;8.69;70.62;96560.50;5054951;28;20394;-60
2020/12/19 06:48:34;;;;;;;6.33;3.73;;;;;;;8.63;70.48;96564.78;5054683;28;20629;-61
2020/12/19 06:51:04;;;;;;;4.00;3.60;;;;;;;8.60;70.48;96565.19;5055099;28;20218;-61
2020/12/19 06:53:31;;;;;;;4.00;3.23;;;;;;;8.51;71.43;96560.41;5054825;28;20424;-61
2020/12/19 06:55:57;;;;;;;3.97;3.67;;;;;;;8.50;71.49;96570.06;5054561;28;20428;-59
2020/12/19 06:58:35;;;;;;;3.83;3.50;;;;;;;8.50;71.56;96567.44;5054399;28;20430;-60
2020/12/19 07:01:21;;;;;;;3.70;3.40;;;;;;;8.57;71.55;96567.44;5054632;28;20472;-59
2020/12/19 07:03:47;;;;;;;3.80;3.50;;;;;;;8.57;71.39;96568.22;5054836;28;20422;-59
2020/12/19 07:06:14;;;;;;;3.43;3.23;;;;;;;8.54;71.58;96565.19;5054591;28;20451;-60
2020/12/19 07:08:41;;;;;;;3.80;3.50;;;;;;;8.57;71.33;96562.97;5053095;28;20176;-58
2020/12/19 07:11:12;;;;;;;4.30;3.90;;;;;;;8.58;71.95;96564.59;5053936;28;20551;-61
2020/12/19 07:13:55;;;;;;;4.40;4.00;;;;;;;8.54;71.77;96566.00;5054340;28;20427;-58
2020/12/19 07:16:43;;;;;;;5.60;4.73;;;;;;;8.54;71.88;96576.50;5053341;28;20427;-60
2020/12/19 07:19:21;;;;;;;4.23;3.83;;;;;;;8.49;71.62;96570.25;5054243;28;20431;-60
2020/12/19 07:21:47;;;;;;;4.13;3.80;;;;;;;8.51;71.97;96573.47;5054657;28;20867;-58
2020/12/19 07:24:12;;;;;;;4.87;4.37;;;;;;;8.48;72.36;96572.06;5054542;28;20896;-60
2020/12/19 07:26:38;;;;;;;3.90;3.60;;;;;;;8.48;71.79;96571.28;5053355;28;20596;-61
2020/12/19 07:29:16;;;;;;;4.37;3.97;;;;;;;8.34;73.06;96578.38;5054158;28;20196;-61
2020/12/19 07:31:45;;;;;;;4.77;4.37;;;;;;;8.39;72.92;96573.31;5053110;28;20461;-61
2020/12/19 07:34:11;;;;;;;4.97;4.20;;;;;;;8.48;72.58;96574.69;5054036;28;20415;-59
2020/12/19 07:36:39;;;;;;;4.33;3.93;;;;;;;8.55;72.70;96583.31;5053449;28;20420;-59
2020/12/19 07:39:06;;;;;;;4.63;3.83;;;;;;;8.59;71.97;96592.38;5053692;28;20194;-60
2020/12/19 07:41:32;;;;;;;4.80;4.40;;;;;;;8.63;71.82;96588.34;5053378;28;20427;-61
2020/12/19 07:44:14;;;;;;;4.70;4.30;;;;;;;8.63;72.23;96585.72;5053957;28;20418;-61
2020/12/19 07:46:57;;;;;;;5.37;4.67;;;;;;;8.61;72.17;96587.75;5052587;28;20464;-61
2020/12/19 07:49:47;;;;;;;5.00;4.50;;;;;;;8.67;72.02;96586.09;5034137;28;20801;-61
2020/12/19 07:52:22;;;;;;;6.57;4.53;;;;;;;8.48;72.81;96587.00;5030597;28;20799;-59
2020/12/19 07:54:54;;;;;;;5.20;4.40;;;;;;;8.28;73.33;96584.41;5053230;28;20511;-58
2020/12/19 07:57:20;;;;;;;4.37;3.97;;;;;;;8.15;74.25;96597.53;5053476;28;20415;-61
2020/12/19 07:59:47;;;;;;;4.90;4.47;;;;;;;8.11;74.01;96584.03;5053156;28;20441;-61
2020/12/19 08:02:14;;;;;;;4.50;4.10;;;;;;;8.31;73.81;96584.03;5053640;28;20921;-58
2020/12/19 08:04:47;;;;;;;4.20;3.90;;;;;;;8.49;73.13;96589.41;5053538;28;20464;-59
2020/12/19 08:07:13;;;;;;;4.03;3.63;;;;;;;8.56;73.13;96597.22;5052736;28;20409;-58
2020/12/19 08:09:39;;;;;;;4.30;3.90;;;;;;;8.65;73.09;96601.22;5050687;28;20452;-58
2020/12/19 08:12:05;;;;;;;5.13;4.07;;;;;;;8.83;72.05;96602.16;5053313;28;20183;-61
2020/12/19 08:14:32;;;;;;;6.33;4.70;;;;;;;8.96;71.72;96601.28;5052907;28;20426;-61
2020/12/19 08:16:58;;;;;;;4.60;4.20;;;;;;;8.87;72.11;96594.69;5052487;28;20424;-59
2020/12/19 08:19:30;;;;;;;4.17;3.77;;;;;;;8.95;72.16;96592.63;5053509;28;20468;-59
2020/12/19 08:22:01;;;;;;;4.50;4.10;;;;;;;9.05;71.60;96589.56;5052909;28;20789;-61
2020/12/19 08:24:27;;;;;;;4.40;4.00;;;;;;;8.88;72.23;96593.66;5052595;28;20419;-59
2020/12/19 08:27:28;;;;;;;3.83;3.53;;;;;;;8.85;72.38;96584.41;5051014;28;20586;-61
2020/12/19 08:30:14;;;;;;;4.13;3.80;;;;;;;8.93;72.36;96581.53;5053349;28;20414;-59
2020/12/19 08:32:46;;;;;;;3.90;3.50;;;;;;;8.94;71.75;96588.41;5053268;28;20409;-61
2020/12/19 08:35:42;;;;;;;4.30;3.90;;;;;;;8.78;72.34;96599.38;5053293;28;20418;-61
2020/12/19 08:38:19;;;;;;;4.30;3.90;;;;;;;8.73;72.53;96601.78;5051895;28;20429;-60
2020/12/19 08:40:47;;;;;;;3.83;3.53;;;;;;;8.62;73.46;96593.78;5043635;28;20500;-61
2020/12/19 08:43:14;;;;;;;4.90;3.67;;;;;;;8.81;73.10;96585.03;5052442;28;20461;-58
2020/12/19 08:45:44;;;;;;;3.93;3.37;;;;;;;8.73;72.95;96590.53;5052403;28;20462;-61
2020/12/19 08:48:23;;;;;;;4.00;3.57;;;;;;;8.91;72.24;96590.63;5052359;28;20418;-59
2020/12/19 08:50:50;;;;;;;4.23;3.83;;;;;;;8.96;72.33;96596.06;5054715;28;20859;-60
2020/12/19 08:53:26;;;;;;;3.80;3.50;;;;;;;9.11;71.76;96599.22;5057964;28;20421;-57
2020/12/19 08:55:52;;;;;;;4.60;4.20;;;;;;;9.18;71.75;96592.09;5059602;28;20810;-57
2020/12/19 08:58:29;;;;;;;4.83;3.63;;;;;;;9.22;71.22;96598.53;5059147;28;20430;-58
2020/12/19 09:00:59;;;;;;;4.50;3.70;;;;;;;9.50;70.54;96606.00;5059175;28;20431;-59
2020/12/19 09:03:33;;;;;;;3.73;3.43;;;;;;;9.68;69.91;96606.06;5059940;28;20889;-59
2020/12/19 09:05:59;;;;;;;3.87;3.57;;;;;;;9.86;69.00;96608.75;5058132;28;20451;-58
2020/12/19 09:08:40;;;;;;;3.90;3.60;;;;;;;10.04;68.76;96617.47;5058574;28;20425;-57
2020/12/19 09:11:26;;;;;;;3.87;3.50;;;;;;;10.03;67.35;96609.81;5058145;28;20451;-58
2020/12/19 09:14:05;;;;;;;5.43;3.00;;;;;;;10.04;67.92;96616.66;5059258;28;20964;-58
2020/12/19 09:16:32;;;;;;;4.13;3.27;;;;;;;10.23;66.53;96616.53;5059032;28;20433;-58
2020/12/19 09:18:57;;;;;;;5.50;3.40;;;;;;;10.41;66.22;96607.06;5059203;28;20427;-57
2020/12/19 09:21:23;;;;;;;3.23;2.90;;;;;;;11.00;65.19;96612.41;5059563;28;20410;-57
2020/12/19 09:23:48;;;;;;;3.50;2.90;;;;;;;11.25;62.81;96607.88;5059415;28;20167;-59
2020/12/19 09:26:13;;;;;;;4.20;3.00;;;;;;;11.47;62.03;96616.06;5059256;28;20206;-59
2020/12/19 09:28:39;;;;;;;3.03;2.80;;;;;;;11.57;61.57;96614.47;5058334;28;20182;-59
2020/12/19 09:31:04;;;;;;;3.47;3.17;;;;;;;11.91;61.08;96615.59;5059034;28;20199;-58
2020/12/19 09:33:29;;;;;;;3.00;2.80;;;;;;;11.82;60.40;96617.75;5059287;28;20178;-59
2020/12/19 09:35:55;;;;;;;2.60;2.40;;;;;;;12.07;60.33;96620.19;5059118;28;20179;-58
2020/12/19 09:38:21;;;;;;;3.50;2.33;;;;;;;12.25;60.12;96612.97;5058709;28;20616;-59
2020/12/19 09:40:47;;;;;;;3.27;2.97;;;;;;;12.24;59.22;96616.66;5058890;28;20441;-62
2020/12/19 09:43:12;;;;;;;3.60;2.60;;;;;;;12.07;57.20;96609.63;5058610;28;20203;-59
2020/12/19 09:45:38;;;;;;;2.57;2.37;;;;;;;12.21;57.41;96613.69;5058707;28;20289;-61
2020/12/19 09:48:04;;;;;;;2.87;2.40;;;;;;;12.31;56.77;96617.34;5054792;28;20183;-59
2020/12/19 09:50:30;;;;;;;2.70;2.33;;;;;;;12.41;55.75;96611.47;5054914;28;20969;-66
2020/12/19 09:52:56;;;;;;;2.50;2.30;;;;;;;12.34;54.81;96606.31;5055458;28;20516;-62
2020/12/19 09:55:22;;;;;;;2.20;2.10;;;;;;;12.29;55.43;96610.69;5055452;28;20501;-64
2020/12/19 09:57:48;;;;;;;2.33;2.13;;;;;;;12.56;55.48;96608.34;5055111;28;20268;-64
2020/12/19 10:00:14;;;;;;;2.33;2.13;;;;;;;12.57;55.14;96610.78;5055250;28;20440;-62
2020/12/19 10:02:41;;;;;;;2.20;1.87;;;;;;;12.63;54.76;96596.66;5054099;28;20730;-65
2020/12/19 10:05:07;;;;;;;4.13;2.53;;;;;;;12.65;54.72;96601.69;5052369;28;20488;-60
2020/12/19 10:07:33;;;;;;;2.93;2.00;;;;;;;12.95;54.80;96602.31;5051993;28;20447;-61
2020/12/19 10:09:59;;;;;;;2.13;2.03;;;;;;;13.06;54.97;96596.25;5051642;28;20461;-58
2020/12/19 10:12:24;;;;;;;4.30;3.17;;;;;;;13.20;54.98;96601.00;5051567;28;20430;-60
2020/12/19 10:14:50;;;;;;;3.97;3.50;;;;;;;13.19;54.95;96599.38;5052185;28;20172;-59
2020/12/19 10:17:15;;;;;;;3.87;3.50;;;;;;;13.26;54.61;96599.25;5051872;28;20171;-59
2020/12/19 10:19:41;;;;;;;2.77;2.57;;;;;;;13.38;55.10;96598.16;5050544;28;20218;-60
2020/12/19 10:22:06;;;;;;;3.00;2.70;;;;;;;13.52;54.83;96589.94;5051243;28;20179;-58
2020/12/19 10:24:31;;;;;;;3.00;2.80;;;;;;;13.48;55.49;96591.47;5051522;28;20199;-58
2020/12/19 10:26:57;;;;;;;2.90;2.70;;;;;;;13.62;54.79;96588.28;5051522;28;20229;-56
2020/12/19 10:29:23;;;;;;;3.10;2.80;;;;;;;13.63;54.89;96586.44;5051876;28;20253;-56
2020/12/19 10:31:48;;;;;;;2.80;2.60;;;;;;;13.68;54.88;96578.63;5051671;28;20641;-58
2020/12/19 10:34:14;;;;;;;3.30;3.07;;;;;;;13.69;54.58;96582.84;5051920;28;20179;-56
2020/12/19 10:36:39;;;;;;;3.40;3.03;;;;;;;13.75;54.53;96568.69;5047150;28;20282;-57
2020/12/19 10:39:05;;;;;;;4.73;3.57;;;;;;;13.81;54.54;96579.09;5031755;28;20256;-56
2020/12/19 10:41:31;;;;;;;3.73;3.43;;;;;;;13.95;54.05;96574.28;5034151;28;20183;-55
2020/12/19 10:43:56;;;;;;;3.37;2.90;;;;;;;14.03;54.16;96574.69;5053640;28;20190;-55
2020/12/19 10:46:22;;;;;;;3.73;3.17;;;;;;;14.06;54.06;96573.38;5054539;28;20394;-56
2020/12/19 10:48:48;;;;;;;3.10;2.80;;;;;;;14.01;53.71;96570.66;5055045;28;20167;-59
2020/12/19 10:51:14;;;;;;;3.10;2.80;;;;;;;14.13;53.30;96568.75;5053564;28;20495;-57
2020/12/19 10:53:41;;;;;;;3.43;2.20;;;;;;;14.23;51.94;96568.88;5054766;28;20179;-58
2020/12/19 10:56:06;;;;;;;1.80;1.70;;;;;;;14.08;50.61;96555.44;5054871;28;20171;-62
2020/12/19 10:58:32;;;;;;;2.07;1.77;;;;;;;14.05;49.95;96555.94;5054330;28;20414;-62
2020/12/19 11:00:57;;;;;;;1.83;1.60;;;;;;;13.94;48.44;96557.63;5054501;28;20203;-57
2020/12/19 11:03:23;;;;;;;10.70;2.70;;;;;;;14.05;49.41;96550.66;5054846;28;20171;-57
2020/12/19 11:05:48;;;;;;;1.60;1.50;;;;;;;13.97;47.90;96549.22;5053837;28;20209;-54
2020/12/19 11:08:14;;;;;;;1.90;1.70;;;;;;;14.02;47.72;96546.63;5054200;28;20182;-54
2020/12/19 11:10:42;;;;;;;1.63;1.53;;;;;;;13.65;47.20;96550.84;5054534;28;20187;-50
2020/12/19 11:13:07;;;;;;;1.63;1.53;;;;;;;13.78;48.40;96545.25;5053990;28;20764;-49
2020/12/19 11:15:32;;;;;;;1.40;1.30;;;;;;;14.04;47.50;96541.13;5054069;28;20608;-58
2020/12/19 11:17:58;;;;;;;2.43;1.87;;;;;;;13.90;47.47;96543.28;5053580;28;20187;-60
2020/12/19 11:20:23;;;;;;;1.60;1.50;;;;;;;14.26;49.30;96536.66;5052938;28;20203;-65
2020/12/19 11:22:49;;;;;;;2.13;1.97;;;;;;;14.59;47.21;96531.31;5054030;28;20175;-53
2020/12/19 11:25:15;;;;;;;2.10;1.90;;;;;;;15.04;47.85;96528.38;5054214;28;20199;-53
2020/12/19 11:27:40;;;;;;;1.83;1.73;;;;;;;15.32;46.03;96520.19;5054060;28;20171;-55
2020/12/19 11:30:06;;;;;;;2.17;2.03;;;;;;;15.35;44.74;96524.97;5053308;28;20206;-55
2020/12/19 11:32:31;;;;;;;2.77;2.47;;;;;;;15.62;44.71;96519.69;5054366;28;20174;-56
2020/12/19 11:34:57;;;;;;;2.03;1.87;;;;;;;15.78;43.98;96508.94;5053548;28;20633;-53
2020/12/19 11:37:22;;;;;;;2.53;2.30;;;;;;;16.17;43.43;96518.22;5053706;28;20179;-52
2020/12/19 11:39:48;;;;;;;2.80;2.30;;;;;;;16.25;41.24;96509.75;5054100;28;20203;-55
2020/12/19 11:42:13;;;;;;;2.40;2.20;;;;;;;16.34;41.44;96515.41;5054236;28;20601;-52
2020/12/19 11:44:38;;;;;;;2.23;2.03;;;;;;;16.57;40.08;96509.69;5054067;28;20175;-54